Time;durP1;ratioP1;P1;durP2;ratioP2;P2;SDS_P1;SDS_P2;PMS_P1;PMS_P2;Temp;Humidity;BMP_temperature;BMP_pressure;BME280_temperature;BME280_humidity;BME280_pressure;Samples;Min_cycle;Max_cycle;Signal;HPM_P1;HPM_P2
2023/08/06 00:02:15;;;;;;;5.00;4.45;;;16.30;99.90;;;;;;6375022;28;20055;-82
2023/08/06 00:05:20;;;;;;;5.03;4.35;;;16.20;99.90;;;;;;6369298;27;20072;-83
2023/08/06 00:08:22;;;;;;;10.15;4.63;;;16.20;99.90;;;;;;6353857;28;20047;-84
2023/08/06 00:11:25;;;;;;;4.47;3.92;;;16.10;99.90;;;;;;6354538;28;20048;-84
2023/08/06 00:14:26;;;;;;;7.50;3.88;;;16.10;99.90;;;;;;6355446;28;20064;-83
2023/08/06 00:17:28;;;;;;;6.30;4.90;;;16.00;99.90;;;;;;6354579;28;20378;-83
2023/08/06 00:20:33;;;;;;;6.53;3.80;;;15.90;99.90;;;;;;6354540;28;20098;-84
2023/08/06 00:23:35;;;;;;;6.55;3.70;;;16.00;99.90;;;;;;6355357;28;20048;-84
2023/08/06 00:26:57;;;;;;;6.40;3.22;;;15.90;99.90;;;;;;6370240;28;20058;-83
2023/08/06 00:30:07;;;;;;;5.00;3.67;;;15.80;99.90;;;;;;6379345;28;20070;-84
2023/08/06 00:33:09;;;;;;;6.13;3.30;;;15.70;99.90;;;;;;6379896;27;20403;-83
2023/08/06 00:36:12;;;;;;;3.38;3.08;;;15.70;99.90;;;;;;6380893;27;20240;-84
2023/08/06 00:39:14;;;;;;;3.67;3.28;;;15.50;99.90;;;;;;6380091;27;20051;-84
2023/08/06 00:42:28;;;;;;;6.47;2.92;;;15.60;99.90;;;;;;6358427;28;20044;-83
2023/08/06 00:45:31;;;;;;;6.15;4.03;;;15.60;99.90;;;;;;6354051;28;20090;-83
2023/08/06 00:48:33;;;;;;;4.50;4.10;;;15.60;99.90;;;;;;6354448;28;20132;-83
2023/08/06 00:55:44;;;;;;;3.88;3.47;;;15.70;99.90;;;;;;6345297;28;20051;-83
2023/08/06 00:59:39;;;;;;;4.45;3.38;;;15.70;99.90;;;;;;6340383;28;20051;-83
2023/08/06 01:18:29;;;;;;;8.88;3.30;;;15.70;99.90;;;;;;6310950;28;20060;-83
2023/08/06 01:21:37;;;;;;;2.38;2.17;;;15.70;99.90;;;;;;6302256;28;20051;-82
2023/08/06 01:24:39;;;;;;;27.27;6.78;;;15.70;99.90;;;;;;6301498;28;20057;-82
2023/08/06 01:27:47;;;;;;;3.47;2.60;;;15.90;99.90;;;;;;6307156;28;20054;-81
2023/08/06 01:30:51;;;;;;;4.75;4.13;;;15.80;99.90;;;;;;6302824;28;20080;-81
2023/08/06 01:33:54;;;;;;;4.40;2.95;;;15.90;99.90;;;;;;6301811;28;20068;-81
2023/08/06 01:36:58;;;;;;;2.83;2.50;;;15.90;99.90;;;;;;6319069;28;20495;-81
2023/08/06 01:40:00;;;;;;;2.38;2.20;;;16.00;99.90;;;;;;6315222;28;20124;-82
2023/08/06 01:43:02;;;;;;;4.45;2.70;;;16.00;99.90;;;;;;6302679;28;20052;-82
2023/08/06 01:46:04;;;;;;;12.25;3.25;;;16.10;99.90;;;;;;6325517;28;20056;-82
2023/08/06 01:49:05;;;;;;;4.53;2.72;;;16.10;99.90;;;;;;6305276;28;20059;-82
2023/08/06 01:52:08;;;;;;;6.38;2.90;;;16.20;99.90;;;;;;6309699;28;20208;-79
2023/08/06 01:55:10;;;;;;;2.88;2.55;;;15.90;99.90;;;;;;6319677;28;20084;-81
2023/08/06 01:58:12;;;;;;;5.78;3.28;;;15.70;99.90;;;;;;6298179;28;20060;-81
2023/08/06 02:01:14;;;;;;;3.28;2.80;;;15.60;99.90;;;;;;6318070;28;20044;-79
2023/08/06 02:04:15;;;;;;;6.10;2.70;;;15.50;99.90;;;;;;6310014;28;20526;-79
2023/08/06 02:07:18;;;;;;;5.22;2.95;;;15.40;99.90;;;;;;6302177;28;20517;-81
2023/08/06 02:10:20;;;;;;;6.03;2.42;;;15.50;99.90;;;;;;6322526;28;20430;-80
2023/08/06 02:13:22;;;;;;;5.25;2.67;;;15.40;99.90;;;;;;6300848;28;20047;-79
2023/08/06 02:16:23;;;;;;;3.72;3.42;;;15.40;99.90;;;;;;6297788;28;20053;-80
2023/08/06 02:19:25;;;;;;;10.38;3.33;;;15.40;99.90;;;;;;6296587;28;20082;-82
2023/08/06 02:22:28;;;;;;;4.55;3.00;;;15.50;99.90;;;;;;6297158;28;20045;-82
2023/08/06 02:25:30;;;;;;;7.57;3.42;;;15.40;99.90;;;;;;6281530;28;20045;-81
2023/08/06 02:28:32;;;;;;;4.03;3.63;;;15.40;99.90;;;;;;6279442;28;20041;-79
2023/08/06 02:31:34;;;;;;;10.70;3.53;;;15.50;99.90;;;;;;6280440;28;20049;-80
2023/08/06 02:34:36;;;;;;;6.60;2.90;;;15.50;99.90;;;;;;6279905;28;20052;-81
2023/08/06 02:37:39;;;;;;;5.28;3.70;;;15.50;99.90;;;;;;6278868;28;20045;-82
2023/08/06 02:40:45;;;;;;;5.45;2.85;;;15.60;99.90;;;;;;6279051;28;20041;-82
2023/08/06 02:43:46;;;;;;;8.95;3.03;;;15.60;99.90;;;;;;6279239;28;20557;-82
2023/08/06 02:46:51;;;;;;;4.60;3.38;;;15.60;99.90;;;;;;6280275;28;20427;-79
2023/08/06 02:49:53;;;;;;;5.78;2.97;;;15.60;99.90;;;;;;6279984;28;20057;-80
2023/08/06 02:52:56;;;;;;;2.63;2.40;;;15.70;99.90;;;;;;6279140;28;20068;-82
2023/08/06 02:55:58;;;;;;;7.22;3.45;;;15.60;99.90;;;;;;6279553;28;20044;-81
2023/08/06 02:59:00;;;;;;;9.77;3.95;;;15.70;99.90;;;;;;6278382;28;20044;-82
2023/08/06 03:02:03;;;;;;;4.22;2.30;;;15.60;99.90;;;;;;6280642;28;20462;-83
2023/08/06 03:05:06;;;;;;;8.35;3.10;;;15.50;99.90;;;;;;6279441;28;20048;-83
2023/08/06 03:08:09;;;;;;;7.43;4.03;;;15.50;99.90;;;;;;6287768;28;20071;-82
2023/08/06 03:11:10;;;;;;;4.03;2.92;;;15.40;99.90;;;;;;6303335;28;20056;-82
2023/08/06 03:14:16;;;;;;;5.20;3.30;;;15.40;99.90;;;;;;6304322;28;20138;-82
2023/08/06 03:17:23;;;;;;;4.22;2.85;;;15.30;99.90;;;;;;6290508;28;20200;-83
2023/08/06 03:20:26;;;;;;;4.78;2.97;;;15.20;99.90;;;;;;6311892;28;20039;-82
2023/08/06 03:23:29;;;;;;;9.90;2.53;;;15.20;99.90;;;;;;6289695;28;20052;-82
2023/08/06 03:26:30;;;;;;;5.70;2.67;;;15.20;99.90;;;;;;6308701;28;20053;-82
2023/08/06 03:29:32;;;;;;;3.85;2.70;;;15.20;99.90;;;;;;6306233;28;20401;-82
2023/08/06 03:32:34;;;;;;;9.50;2.85;;;15.20;99.90;;;;;;6317997;28;20036;-80
2023/08/06 03:35:35;;;;;;;6.93;2.88;;;15.20;99.90;;;;;;6325579;28;20044;-80
2023/08/06 03:38:38;;;;;;;6.50;2.67;;;15.20;99.90;;;;;;6327077;28;20107;-81
2023/08/06 03:41:40;;;;;;;9.88;2.80;;;15.20;99.90;;;;;;6327173;28;20047;-80
2023/08/06 03:44:42;;;;;;;13.57;4.07;;;15.20;99.90;;;;;;6326748;28;20071;-80
2023/08/06 03:47:44;;;;;;;5.82;2.00;;;15.20;99.90;;;;;;6326237;28;20525;-79
2023/08/06 03:50:45;;;;;;;4.35;2.92;;;15.20;99.90;;;;;;6327024;28;20419;-80
2023/08/06 03:53:48;;;;;;;4.18;1.52;;;15.20;99.90;;;;;;6326441;28;20492;-81
2023/08/06 03:56:50;;;;;;;5.40;2.03;;;15.20;99.90;;;;;;6326655;28;20052;-81
2023/08/06 03:59:52;;;;;;;4.95;1.75;;;15.20;99.90;;;;;;6326265;28;20043;-80
2023/08/06 04:02:53;;;;;;;2.72;1.50;;;15.20;99.90;;;;;;6327039;28;20044;-80
2023/08/06 04:05:56;;;;;;;4.30;1.63;;;15.20;99.90;;;;;;6307391;28;20072;-81
2023/08/06 04:08:58;;;;;;;3.17;1.23;;;15.20;99.90;;;;;;6300969;28;20056;-80
2023/08/06 04:12:01;;;;;;;3.25;1.88;;;15.20;99.90;;;;;;6300510;28;20047;-80
2023/08/06 04:15:03;;;;;;;8.52;1.15;;;15.10;99.90;;;;;;6302784;28;20411;-81
2023/08/06 04:18:05;;;;;;;3.35;1.40;;;15.10;99.90;;;;;;6302981;28;20125;-79
2023/08/06 04:21:07;;;;;;;3.17;1.67;;;15.00;99.90;;;;;;6302403;28;20427;-79
2023/08/06 04:24:10;;;;;;;6.72;1.50;;;15.00;99.90;;;;;;6301211;28;20056;-79
2023/08/06 04:27:12;;;;;;;2.17;1.30;;;15.00;99.90;;;;;;6300938;28;20056;-80
2023/08/06 04:30:14;;;;;;;3.03;1.50;;;15.00;99.90;;;;;;6301532;28;20055;-80
2023/08/06 04:33:15;;;;;;;9.75;1.83;;;15.00;99.90;;;;;;6301640;28;20051;-81
2023/08/06 04:36:17;;;;;;;4.68;1.75;;;15.00;99.90;;;;;;6303929;28;20048;-82
2023/08/06 04:39:20;;;;;;;3.70;1.38;;;14.90;99.90;;;;;;6308566;28;20048;-79
2023/08/06 04:42:22;;;;;;;2.92;1.00;;;14.90;99.90;;;;;;6308580;28;20060;-80
2023/08/06 04:45:24;;;;;;;6.82;1.73;;;14.90;99.90;;;;;;6307810;28;20044;-82
2023/08/06 04:48:25;;;;;;;7.82;4.38;;;14.90;99.90;;;;;;6307526;28;20415;-81
2023/08/06 04:51:27;;;;;;;5.30;2.00;;;14.90;99.90;;;;;;6308896;28;20048;-81
2023/08/06 04:54:30;;;;;;;7.88;1.63;;;15.00;99.90;;;;;;6307897;28;20070;-82
2023/08/06 04:57:32;;;;;;;5.05;1.70;;;14.90;99.90;;;;;;6308019;28;20396;-79
2023/08/06 05:00:34;;;;;;;2.65;1.45;;;14.90;99.90;;;;;;6306813;28;20044;-80
2023/08/06 05:03:36;;;;;;;8.18;1.83;;;15.00;99.90;;;;;;6309371;28;20044;-81
2023/08/06 05:06:39;;;;;;;3.50;2.13;;;15.00;99.90;;;;;;6306464;28;20052;-81
2023/08/06 05:09:42;;;;;;;6.70;3.53;;;15.10;99.90;;;;;;6307660;28;20048;-81
2023/08/06 05:12:43;;;;;;;3.15;1.80;;;15.20;99.90;;;;;;6309114;28;20039;-80
2023/08/06 05:15:46;;;;;;;5.18;2.10;;;15.30;99.90;;;;;;6313991;28;20041;-80
2023/08/06 05:18:47;;;;;;;6.30;1.85;;;15.30;99.90;;;;;;6307218;28;20049;-82
2023/08/06 05:21:49;;;;;;;2.15;1.48;;;15.40;99.90;;;;;;6306224;28;20044;-80
2023/08/06 05:24:52;;;;;;;5.15;1.88;;;15.30;99.90;;;;;;6303632;28;20056;-82
2023/08/06 05:27:54;;;;;;;3.15;1.42;;;15.30;99.90;;;;;;6304175;28;20051;-81
2023/08/06 05:30:56;;;;;;;4.05;1.63;;;15.30;99.90;;;;;;6305450;28;20071;-81
2023/08/06 05:33:57;;;;;;;7.72;1.73;;;15.30;99.90;;;;;;6305671;28;20411;-80
2023/08/06 05:36:59;;;;;;;4.35;1.52;;;15.30;99.90;;;;;;6304477;28;20131;-80
2023/08/06 05:40:03;;;;;;;6.50;1.80;;;15.40;99.90;;;;;;6304638;28;20041;-82
2023/08/06 05:43:05;;;;;;;4.60;1.70;;;15.30;99.90;;;;;;6304216;28;20063;-79
2023/08/06 05:46:07;;;;;;;3.47;1.38;;;15.30;99.90;;;;;;6306334;28;20052;-81
2023/08/06 05:49:08;;;;;;;4.00;1.50;;;15.20;99.90;;;;;;6306011;28;20047;-81
2023/08/06 05:52:10;;;;;;;4.30;1.58;;;15.30;99.90;;;;;;6306306;28;20055;-81
2023/08/06 05:55:13;;;;;;;3.28;1.33;;;15.30;99.90;;;;;;6305266;28;20045;-79
2023/08/06 05:58:15;;;;;;;6.35;1.77;;;15.20;99.90;;;;;;6304999;28;20055;-80
2023/08/06 06:01:16;;;;;;;2.67;1.50;;;15.20;99.90;;;;;;6309480;28;20048;-80
2023/08/06 06:04:18;;;;;;;4.43;1.30;;;15.30;99.90;;;;;;6310941;28;20048;-80
2023/08/06 06:07:20;;;;;;;1.10;0.73;;;15.30;99.90;;;;;;6310738;28;20383;-81
2023/08/06 06:10:23;;;;;;;3.55;0.98;;;15.40;99.90;;;;;;6310560;28;20064;-80
2023/08/06 06:13:24;;;;;;;0.82;0.70;;;15.40;99.90;;;;;;6334259;28;20127;-80
2023/08/06 06:16:26;;;;;;;1.23;0.77;;;15.40;99.90;;;;;;6335114;28;20125;-80
2023/08/06 06:19:28;;;;;;;2.45;0.93;;;15.50;99.90;;;;;;6334692;28;20067;-81
2023/08/06 06:22:29;;;;;;;1.73;0.70;;;15.50;99.90;;;;;;6335588;28;20127;-82
2023/08/06 06:25:32;;;;;;;2.83;0.73;;;15.50;99.90;;;;;;6335466;28;20052;-81
2023/08/06 06:28:34;;;;;;;1.60;0.90;;;15.50;99.90;;;;;;6334402;28;20162;-82
2023/08/06 06:31:36;;;;;;;2.53;0.47;;;15.40;99.90;;;;;;6334198;28;20503;-81
2023/08/06 06:34:37;;;;;;;1.40;0.68;;;15.40;99.90;;;;;;6333559;28;20070;-80
2023/08/06 06:37:39;;;;;;;0.73;0.73;;;15.40;99.90;;;;;;6328879;28;20048;-81
2023/08/06 06:40:42;;;;;;;0.82;0.60;;;15.30;99.90;;;;;;6309007;28;20048;-81
2023/08/06 06:43:44;;;;;;;1.25;1.05;;;15.20;99.90;;;;;;6278536;28;20070;-81
2023/08/06 06:47:01;;;;;;;0.82;0.55;;;15.20;99.90;;;;;;6269018;28;20049;-82
2023/08/06 06:50:08;;;;;;;3.90;0.60;;;15.20;99.90;;;;;;6278207;28;20588;-82
2023/08/06 06:53:09;;;;;;;3.15;0.98;;;15.10;99.90;;;;;;6264891;28;20045;-81
2023/08/06 06:56:12;;;;;;;2.78;0.77;;;15.10;99.90;;;;;;6289447;28;20052;-80
2023/08/06 06:59:14;;;;;;;1.38;0.85;;;15.10;99.90;;;;;;6276285;28;20048;-82
2023/08/06 07:02:16;;;;;;;5.00;1.00;;;15.10;99.90;;;;;;6278901;28;20055;-82
2023/08/06 07:05:17;;;;;;;1.48;0.73;;;15.10;99.90;;;;;;6279091;28;20045;-80
2023/08/06 07:08:19;;;;;;;3.63;0.90;;;15.10;99.90;;;;;;6278378;28;20041;-80
2023/08/06 07:11:22;;;;;;;1.02;0.70;;;15.20;99.90;;;;;;6280509;28;20167;-81
2023/08/06 07:14:26;;;;;;;1.02;0.80;;;15.10;99.90;;;;;;6280187;28;20048;-80
2023/08/06 07:17:27;;;;;;;1.55;0.70;;;15.30;99.90;;;;;;6282251;28;20063;-82
2023/08/06 07:20:31;;;;;;;2.58;0.90;;;15.30;99.90;;;;;;6279627;28;20052;-81
2023/08/06 07:23:33;;;;;;;1.58;1.00;;;15.40;99.90;;;;;;6277197;28;20055;-81
2023/08/06 07:26:36;;;;;;;3.53;1.70;;;15.60;99.90;;;;;;6281414;28;20049;-82
2023/08/06 07:29:38;;;;;;;1.85;0.52;;;15.70;99.90;;;;;;6278767;28;20569;-83
2023/08/06 07:32:39;;;;;;;1.92;1.05;;;15.80;99.90;;;;;;6279822;28;20527;-83
2023/08/06 07:36:13;;;;;;;3.58;0.90;;;15.70;99.90;;;;;;6279473;28;20041;-81
2023/08/06 07:39:19;;;;;;;1.83;1.15;;;15.60;99.90;;;;;;6281635;28;20087;-82
2023/08/06 07:42:28;;;;;;;5.63;1.00;;;15.50;99.90;;;;;;6284482;28;20055;-82
2023/08/06 07:45:35;;;;;;;2.42;1.17;;;15.50;99.90;;;;;;6277639;28;20045;-83
2023/08/06 07:48:39;;;;;;;3.55;1.65;;;15.40;99.90;;;;;;6280268;28;20132;-83
2023/08/06 07:51:49;;;;;;;3.00;1.10;;;15.30;99.90;;;;;;6277406;28;20484;-82
2023/08/06 07:54:51;;;;;;;3.40;1.42;;;15.30;99.90;;;;;;6288121;28;20056;-82
2023/08/06 07:57:54;;;;;;;5.60;0.95;;;15.30;99.90;;;;;;6281605;28;20053;-82
2023/08/06 08:00:56;;;;;;;0.82;0.80;;;15.40;99.90;;;;;;6281728;28;20048;-83
2023/08/06 08:03:58;;;;;;;2.05;0.65;;;15.30;99.90;;;;;;6280904;28;20040;-82
2023/08/06 08:07:00;;;;;;;2.15;1.02;;;15.30;99.90;;;;;;6279575;28;20055;-81
2023/08/06 08:10:05;;;;;;;1.23;0.93;;;15.20;99.90;;;;;;6279740;28;20049;-82
2023/08/06 08:13:08;;;;;;;1.15;0.70;;;15.10;99.90;;;;;;6280194;28;20066;-82
2023/08/06 08:16:10;;;;;;;1.05;0.95;;;15.10;99.90;;;;;;6278526;28;20103;-82
2023/08/06 08:19:12;;;;;;;3.13;1.45;;;15.00;99.90;;;;;;6277496;28;20052;-81
2023/08/06 08:22:13;;;;;;;2.65;1.70;;;15.00;99.90;;;;;;6278243;28;20470;-82
2023/08/06 08:25:16;;;;;;;1.60;1.42;;;15.00;99.90;;;;;;6276983;28;20052;-83
2023/08/06 08:28:19;;;;;;;1.17;0.98;;;15.10;99.90;;;;;;6279297;28;20041;-82
2023/08/06 08:31:21;;;;;;;1.45;1.02;;;15.20;99.90;;;;;;6278307;28;20064;-83
2023/08/06 08:34:25;;;;;;;1.77;1.10;;;15.10;99.90;;;;;;6279792;28;20053;-82
2023/08/06 08:37:27;;;;;;;3.35;1.35;;;15.20;99.90;;;;;;6278820;28;20060;-83
2023/08/06 08:40:34;;;;;;;5.13;1.73;;;15.30;99.90;;;;;;6277599;22;20049;-82
2023/08/06 08:43:38;;;;;;;2.58;2.33;;;15.30;99.90;;;;;;6280509;28;20055;-84
2023/08/06 08:47:16;;;;;;;3.80;0.90;;;15.50;99.90;;;;;;6277156;28;20056;-82
2023/08/06 08:50:28;;;;;;;2.28;0.85;;;15.50;99.90;;;;;;6287239;28;20053;-82
2023/08/06 08:53:33;;;;;;;0.93;0.70;;;15.40;99.90;;;;;;6305604;28;20048;-81
2023/08/06 08:56:35;;;;;;;1.38;1.00;;;15.40;99.90;;;;;;6304420;28;20049;-82
2023/08/06 08:59:38;;;;;;;3.28;1.00;;;15.40;99.90;;;;;;6293724;28;20060;-82
2023/08/06 09:02:41;;;;;;;2.25;1.00;;;15.30;99.90;;;;;;6303775;28;20044;-80
2023/08/06 09:05:45;;;;;;;3.80;0.88;;;15.20;99.90;;;;;;6302518;28;20086;-81
2023/08/06 09:08:54;;;;;;;1.85;1.13;;;15.20;99.90;;;;;;6285495;28;20064;-80
2023/08/06 09:12:01;;;;;;;1.42;0.80;;;15.20;99.90;;;;;;6302871;28;20048;-81
2023/08/06 09:15:04;;;;;;;2.22;0.77;;;15.30;99.90;;;;;;6297780;28;20104;-80
2023/08/06 09:18:11;;;;;;;4.22;1.05;;;15.40;99.90;;;;;;6301409;28;20621;-80
2023/08/06 09:21:16;;;;;;;4.15;1.42;;;15.30;99.90;;;;;;6300856;28;20052;-80
2023/08/06 09:24:18;;;;;;;9.45;6.65;;;15.20;99.90;;;;;;6300572;28;20056;-79
2023/08/06 09:27:19;;;;;;;31.60;16.92;;;15.20;99.90;;;;;;6301050;28;20047;-79
2023/08/06 09:30:32;;;;;;;24.08;15.57;;;15.20;99.90;;;;;;6302000;28;20127;-80
2023/08/06 09:33:33;;;;;;;46.30;36.72;;;15.30;99.90;;;;;;6303641;28;20067;-80
2023/08/06 09:36:35;;;;;;;9.27;6.60;;;15.40;99.90;;;;;;6306295;28;20048;-80
2023/08/06 09:39:38;;;;;;;6.05;1.98;;;15.50;99.90;;;;;;6305643;28;20050;-79
2023/08/06 09:42:45;;;;;;;5.05;3.85;;;15.50;99.90;;;;;;6307450;28;20048;-80
2023/08/06 09:45:48;;;;;;;7.03;6.53;;;15.50;99.90;;;;;;6308181;28;20102;-80
2023/08/06 09:48:51;;;;;;;1.50;1.08;;;15.50;99.90;;;;;;6302512;28;20044;-80
2023/08/06 09:51:55;;;;;;;4.63;4.38;;;15.50;99.90;;;;;;6306216;28;20044;-80
2023/08/06 09:54:57;;;;;;;0.90;0.90;;;15.50;99.90;;;;;;6303162;28;20060;-80
2023/08/06 09:58:00;;;;;;;2.35;2.25;;;15.50;99.90;;;;;;6281672;28;20432;-81
2023/08/06 10:01:04;;;;;;;0.40;0.40;;;15.50;99.90;;;;;;6282219;28;20049;-80
2023/08/06 10:04:08;;;;;;;1.85;0.85;;;15.50;99.90;;;;;;6280515;28;20044;-80
2023/08/06 10:07:10;;;;;;;2.08;1.35;;;15.60;99.90;;;;;;6282388;28;20051;-78
2023/08/06 10:10:11;;;;;;;2.10;0.82;;;15.60;99.90;;;;;;6305666;28;20052;-79
2023/08/06 10:13:14;;;;;;;3.13;1.30;;;15.50;99.90;;;;;;6304755;28;20056;-80
2023/08/06 10:16:17;;;;;;;2.20;0.68;;;15.50;99.90;;;;;;6298802;28;20048;-80
2023/08/06 10:19:20;;;;;;;0.82;0.82;;;15.40;99.90;;;;;;6305548;28;20151;-79
2023/08/06 10:22:23;;;;;;;0.85;0.85;;;15.30;99.90;;;;;;6306940;28;20101;-80
2023/08/06 10:25:25;;;;;;;1.50;1.15;;;15.20;99.90;;;;;;6305839;28;20118;-80
2023/08/06 10:28:35;;;;;;;4.13;2.63;;;15.20;99.90;;;;;;6307592;28;20048;-78
2023/08/06 10:32:00;;;;;;;4.22;1.75;;;15.20;99.90;;;;;;6306664;28;20522;-79
2023/08/06 10:35:02;;;;;;;1.48;1.38;;;15.20;99.90;;;;;;6306671;28;20051;-80
2023/08/06 10:38:08;;;;;;;4.18;1.38;;;15.20;99.90;;;;;;6304758;28;20064;-79
2023/08/06 10:41:16;;;;;;;3.63;1.42;;;15.20;99.90;;;;;;6304864;28;20427;-80
2023/08/06 10:44:18;;;;;;;1.63;1.20;;;15.20;99.90;;;;;;6301525;28;20033;-80
2023/08/06 10:47:29;;;;;;;2.28;1.92;;;15.30;99.90;;;;;;6293735;28;20044;-80
2023/08/06 10:50:31;;;;;;;1.38;1.15;;;15.30;99.90;;;;;;6230778;28;20061;-80
2023/08/06 10:53:33;;;;;;;5.00;1.42;;;15.40;99.90;;;;;;6290968;28;20094;-79
2023/08/06 10:56:41;;;;;;;5.57;2.80;;;15.30;99.90;;;;;;6295472;28;20052;-79
2023/08/06 10:59:43;;;;;;;2.25;1.55;;;15.30;99.90;;;;;;6288857;28;20048;-80
2023/08/06 11:02:48;;;;;;;4.25;2.10;;;15.20;99.90;;;;;;6291891;28;20052;-80
2023/08/06 11:05:50;;;;;;;2.03;1.42;;;15.20;99.90;;;;;;6293953;28;20041;-80
2023/08/06 11:08:54;;;;;;;2.65;2.45;;;15.20;99.90;;;;;;6295766;28;20524;-81
2023/08/06 11:11:55;;;;;;;4.40;2.88;;;15.20;99.90;;;;;;6303369;28;20051;-78
2023/08/06 11:14:57;;;;;;;4.38;2.67;;;15.30;99.90;;;;;;6303768;28;20052;-81
2023/08/06 11:18:02;;;;;;;4.35;2.83;;;15.30;99.90;;;;;;6306841;28;20053;-78
2023/08/06 11:21:04;;;;;;;4.38;1.98;;;15.40;99.90;;;;;;6305841;28;20059;-77
2023/08/06 11:24:06;;;;;;;5.63;2.90;;;15.60;99.90;;;;;;6304785;28;20048;-81
2023/08/06 11:27:13;;;;;;;6.95;3.35;;;15.70;99.90;;;;;;6309426;28;20049;-80
2023/08/06 11:30:15;;;;;;;6.78;3.13;;;15.80;99.90;;;;;;6310524;28;20056;-81
2023/08/06 11:33:25;;;;;;;3.80;2.47;;;15.90;99.90;;;;;;6311800;28;20076;-80
2023/08/06 11:36:30;;;;;;;3.60;2.70;;;15.90;99.90;;;;;;6312074;28;20136;-80
2023/08/06 11:39:33;;;;;;;3.05;1.88;;;15.90;99.90;;;;;;6307676;28;20063;-81
2023/08/06 11:42:38;;;;;;;3.30;2.53;;;15.90;99.90;;;;;;6306641;28;20084;-79
2023/08/06 11:45:47;;;;;;;4.63;2.30;;;16.00;99.90;;;;;;6299792;28;20131;-79
2023/08/06 11:49:00;;;;;;;5.10;2.17;;;16.10;99.90;;;;;;6299576;28;20048;-80
2023/08/06 11:55:42;;;;;;;3.60;1.63;;;16.40;99.90;;;;;;6291175;28;21576;-80
2023/08/06 11:58:48;;;;;;;2.75;1.50;;;16.50;99.90;;;;;;6302619;28;20482;-81
2023/08/06 12:01:54;;;;;;;4.07;2.03;;;16.50;99.90;;;;;;6303806;28;20519;-80
2023/08/06 12:05:14;;;;;;;4.60;1.77;;;16.60;99.90;;;;;;6302130;28;20395;-80
2023/08/06 12:08:20;;;;;;;3.40;1.70;;;16.60;99.90;;;;;;6305265;28;20091;-81
2023/08/06 12:11:26;;;;;;;3.60;1.83;;;16.50;99.90;;;;;;6304630;28;20040;-82
2023/08/06 12:14:34;;;;;;;2.90;2.13;;;16.50;99.90;;;;;;6305551;28;20059;-82
2023/08/06 12:17:40;;;;;;;2.53;1.70;;;16.40;99.90;;;;;;6297845;28;20053;-83
2023/08/06 12:20:58;;;;;;;4.85;1.55;;;16.40;99.90;;;;;;6304594;28;20044;-83
2023/08/06 12:24:01;;;;;;;3.58;1.40;;;16.50;99.90;;;;;;6278867;28;20137;-82
2023/08/06 12:30:24;;;;;;;3.13;1.25;;;16.60;99.90;;;;;;6279251;28;20084;-82
2023/08/06 12:33:27;;;;;;;3.97;1.58;;;16.70;99.90;;;;;;6289848;28;20683;-83
2023/08/06 12:36:30;;;;;;;2.33;1.60;;;16.80;99.90;;;;;;6294480;28;20127;-81
2023/08/06 12:39:32;;;;;;;4.05;1.60;;;16.90;99.90;;;;;;6292001;28;20175;-82
2023/08/06 12:42:34;;;;;;;2.33;1.23;;;17.00;99.90;;;;;;6305174;28;20125;-82
2023/08/06 12:45:36;;;;;;;2.13;1.38;;;17.00;99.90;;;;;;6303987;28;20048;-82
2023/08/06 12:48:38;;;;;;;1.42;1.20;;;16.90;99.90;;;;;;6303152;28;20041;-82
2023/08/06 12:51:41;;;;;;;1.58;1.20;;;16.80;99.90;;;;;;6303010;28;20055;-81
2023/08/06 12:54:43;;;;;;;3.70;1.25;;;16.90;99.90;;;;;;6303725;28;20129;-80
2023/08/06 12:57:45;;;;;;;4.10;2.75;;;17.00;99.90;;;;;;6303606;28;20455;-83
2023/08/06 13:00:47;;;;;;;3.08;1.52;;;17.20;99.90;;;;;;6303004;28;20128;-82
2023/08/06 13:03:48;;;;;;;0.98;0.93;;;17.50;99.90;;;;;;6302868;28;20045;-81
2023/08/06 13:06:51;;;;;;;1.52;0.80;;;17.70;99.90;;;;;;6295531;28;20057;-82
2023/08/06 13:09:54;;;;;;;3.50;1.63;;;17.80;99.90;;;;;;6282207;28;20055;-82
2023/08/06 13:12:56;;;;;;;1.33;0.68;;;17.80;99.90;;;;;;6280129;28;20049;-84
2023/08/06 13:16:07;;;;;;;0.63;0.60;;;17.90;99.90;;;;;;6288202;28;20045;-83
2023/08/06 13:22:34;;;;;;;0.93;0.70;;;18.60;99.90;;;;;;6304781;28;20611;-84
2023/08/06 13:25:37;;;;;;;2.35;0.70;;;18.90;99.90;;;;;;6309953;28;20052;-83
2023/08/06 13:28:41;;;;;;;0.70;0.70;;;19.10;99.90;;;;;;6305615;28;20045;-84
2023/08/06 13:31:49;;;;;;;0.82;0.82;;;19.10;99.90;;;;;;6307184;28;20052;-84
2023/08/06 13:34:51;;;;;;;1.13;0.82;;;18.80;99.90;;;;;;6307309;28;20053;-83
2023/08/06 13:37:55;;;;;;;1.80;0.73;;;18.70;99.90;;;;;;6305215;28;20108;-83
2023/08/06 13:41:00;;;;;;;1.05;0.80;;;18.90;99.90;;;;;;6307436;28;20049;-83
2023/08/06 13:44:02;;;;;;;0.75;0.65;;;19.10;99.90;;;;;;6305173;28;20045;-82
2023/08/06 13:47:04;;;;;;;1.25;0.95;;;19.30;99.90;;;;;;6300967;28;20542;-82
2023/08/06 13:50:07;;;;;;;0.88;0.82;;;19.20;99.90;;;;;;6302811;28;20055;-83
2023/08/06 13:53:11;;;;;;;0.80;0.70;;;19.00;99.90;;;;;;6300079;28;20037;-83
2023/08/06 13:56:17;;;;;;;3.28;0.75;;;19.10;99.90;;;;;;6301969;28;20071;-84
2023/08/06 13:59:19;;;;;;;2.80;0.70;;;19.30;99.90;;;;;;6305233;28;20044;-81
2023/08/06 14:02:25;;;;;;;0.80;0.77;;;19.20;99.90;;;;;;6304772;28;20064;-80
2023/08/06 14:05:27;;;;;;;1.85;0.85;;;19.30;99.90;;;;;;6306766;28;20102;-82
2023/08/06 14:08:31;;;;;;;1.88;1.00;;;19.70;99.90;;;;;;6302431;28;20040;-82
2023/08/06 14:11:33;;;;;;;2.97;0.80;;;20.10;99.90;;;;;;6301866;28;20044;-82
2023/08/06 14:14:35;;;;;;;1.90;0.68;;;20.40;99.90;;;;;;6298781;28;20053;-82
2023/08/06 14:17:37;;;;;;;0.50;0.47;;;20.50;99.90;;;;;;6297136;28;20126;-83
2023/08/06 14:20:39;;;;;;;1.38;1.27;;;20.70;99.90;;;;;;6295096;28;20094;-83
2023/08/06 14:23:42;;;;;;;3.10;1.05;;;20.50;99.90;;;;;;6313576;28;20570;-82
2023/08/06 14:26:44;;;;;;;1.27;0.73;;;20.60;99.90;;;;;;6312054;28;20041;-83
2023/08/06 14:29:46;;;;;;;0.75;0.60;;;20.70;99.90;;;;;;6308845;28;20059;-81
2023/08/06 14:32:48;;;;;;;2.47;0.70;;;20.50;99.90;;;;;;6310700;28;20059;-82
2023/08/06 14:35:49;;;;;;;0.70;0.70;;;20.30;99.90;;;;;;6310894;28;20071;-81
2023/08/06 14:38:53;;;;;;;0.77;0.77;;;19.80;99.90;;;;;;6312437;28;20052;-82
2023/08/06 14:41:54;;;;;;;2.47;0.98;;;19.60;99.90;;;;;;6312124;28;20053;-80
2023/08/06 14:44:56;;;;;;;2.38;0.95;;;19.60;99.90;;;;;;6305174;28;20056;-81
2023/08/06 14:47:58;;;;;;;2.33;1.00;;;19.50;99.90;;;;;;6300671;28;20149;-82
2023/08/06 14:51:00;;;;;;;3.42;0.73;;;19.50;99.90;;;;;;6301328;28;20127;-82
2023/08/06 14:54:04;;;;;;;3.00;0.80;;;19.50;99.90;;;;;;6312061;28;20098;-82
2023/08/06 14:57:06;;;;;;;0.45;0.45;;;19.40;99.90;;;;;;6311043;28;20064;-82
2023/08/06 15:00:10;;;;;;;1.95;1.05;;;19.30;99.90;;;;;;6309144;28;20048;-82
2023/08/06 15:03:12;;;;;;;0.68;0.63;;;19.20;99.90;;;;;;6300019;28;20236;-81
2023/08/06 15:06:14;;;;;;;5.45;0.70;;;19.20;99.90;;;;;;6308700;28;20506;-81
2023/08/06 15:09:17;;;;;;;1.67;0.98;;;19.20;99.90;;;;;;6297462;28;20053;-81
2023/08/06 15:12:20;;;;;;;2.25;0.80;;;19.10;99.90;;;;;;6311191;28;20472;-81
2023/08/06 15:15:23;;;;;;;4.18;1.40;;;19.00;99.90;;;;;;6312355;28;20044;-82
2023/08/06 15:18:24;;;;;;;0.80;0.70;;;18.90;99.90;;;;;;6307130;28;20048;-81
2023/08/06 15:21:26;;;;;;;0.98;0.68;;;19.20;99.90;;;;;;6310287;28;20048;-80
2023/08/06 15:24:29;;;;;;;2.50;1.33;;;19.70;99.90;;;;;;6309739;28;20063;-82
2023/08/06 15:27:32;;;;;;;2.88;0.60;;;20.20;99.90;;;;;;6310264;28;20053;-81
2023/08/06 15:30:34;;;;;;;1.50;0.98;;;20.40;99.90;;;;;;6310407;28;20189;-81
2023/08/06 15:33:36;;;;;;;1.10;0.82;;;20.30;99.90;;;;;;6314347;28;20055;-82
2023/08/06 15:36:38;;;;;;;3.20;1.17;;;20.40;99.90;;;;;;6314868;28;20048;-82
2023/08/06 15:39:41;;;;;;;2.05;0.82;;;20.40;99.90;;;;;;6312536;28;20040;-81
2023/08/06 15:42:43;;;;;;;3.60;0.98;;;20.20;99.90;;;;;;6312661;28;20048;-80
2023/08/06 15:45:44;;;;;;;0.68;0.60;;;20.00;99.90;;;;;;6310675;28;20416;-82
2023/08/06 15:48:46;;;;;;;1.40;0.75;;;19.90;99.90;;;;;;6308917;28;20048;-82
2023/08/06 15:51:48;;;;;;;3.55;0.95;;;19.50;99.90;;;;;;6310944;28;20072;-81
2023/08/06 15:54:51;;;;;;;1.02;0.80;;;19.30;99.90;;;;;;6311823;28;20059;-81
2023/08/06 15:57:53;;;;;;;2.25;1.00;;;19.10;99.90;;;;;;6314691;28;20247;-80
2023/08/06 16:00:54;;;;;;;1.13;1.00;;;18.80;99.90;;;;;;6313200;28;20070;-81
2023/08/06 16:03:56;;;;;;;6.15;4.47;;;18.30;99.90;;;;;;6307014;28;20609;-81
2023/08/06 16:06:58;;;;;;;13.70;6.97;;;17.60;99.90;;;;;;6312241;28;20410;-82
2023/08/06 16:10:02;;;;;;;2.47;2.20;;;16.90;99.90;;;;;;6308953;28;20052;-81
2023/08/06 16:13:04;;;;;;;9.95;8.95;;;16.60;99.90;;;;;;6305191;28;20056;-81
2023/08/06 16:16:05;;;;;;;4.80;2.35;;;16.30;99.90;;;;;;6302921;28;20212;-80
2023/08/06 16:19:07;;;;;;;10.45;9.25;;;16.20;99.90;;;;;;6286314;28;20116;-81
2023/08/06 16:22:09;;;;;;;21.92;19.00;;;16.10;99.90;;;;;;6278369;28;20056;-81
2023/08/06 16:25:14;;;;;;;6.80;5.40;;;16.00;99.90;;;;;;6277212;28;20049;-80